createdAt,value
2017-09-21T00:00:54.662Z,74.82
2017-09-21T00:02:05.031Z,75.01
2017-09-21T00:03:15.047Z,74.82
2017-09-21T00:04:25.074Z,74.73
2017-09-21T00:05:35.409Z,75.1
2017-09-21T00:06:45.994Z,75.01
2017-09-21T00:07:56.328Z,74.98
2017-09-21T00:09:06.364Z,74.98
2017-09-21T00:10:16.051Z,75.16
2017-09-21T00:11:26.439Z,74.78
2017-09-21T00:12:36.471Z,75.07
2017-09-21T00:13:46.807Z,74.88
2017-09-21T00:14:57.136Z,75.26
2017-09-21T00:16:07.489Z,74.53
2017-09-21T00:17:20.126Z,75.26
2017-09-21T00:18:30.493Z,74.82
2017-09-21T00:19:40.506Z,74.49
2017-09-21T00:20:50.217Z,74.78
2017-09-21T00:22:00.546Z,74.88
2017-09-21T00:23:10.305Z,75.26
2017-09-21T00:24:20.323Z,74.78
2017-09-21T00:25:30.364Z,74.88
2017-09-21T00:26:40.690Z,75.07
2017-09-21T00:27:51.021Z,74.69
2017-09-21T00:29:01.089Z,74.69
2017-09-21T00:30:11.434Z,75.07
2017-09-21T00:31:21.141Z,74.59
2017-09-21T00:32:31.501Z,74.98
2017-09-21T00:33:41.507Z,74.69
2017-09-21T00:34:51.524Z,74.98
2017-09-21T00:36:01.875Z,74.78
2017-09-21T00:37:14.558Z,74.78
2017-09-21T00:38:24.904Z,74.88
2017-09-21T00:39:35.225Z,74.78
2017-09-21T00:40:45.573Z,74.78
2017-09-21T00:41:55.914Z,75.16
2017-09-21T00:43:05.615Z,75.26
2017-09-21T00:44:15.633Z,74.78
2017-09-21T00:45:25.653Z,74.98
2017-09-21T00:46:35.982Z,74.98
2017-09-21T00:47:46.001Z,74.98
2017-09-21T00:48:56.035Z,74.98
2017-09-21T00:50:06.367Z,74.3
2017-09-21T00:51:16.689Z,74.88
2017-09-21T00:52:26.754Z,74.78
2017-09-21T00:53:36.777Z,74.3
2017-09-21T00:54:47.117Z,74.78
2017-09-21T00:55:57.129Z,75.35
2017-09-21T00:57:07.466Z,74.3
2017-09-21T00:58:17.853Z,74.4
2017-09-21T00:59:28.177Z,74.49
2017-09-21T01:00:38.536Z,74.3
2017-09-21T01:01:48.885Z,74.4
2017-09-21T01:02:59.221Z,74.11
2017-09-21T01:04:09.594Z,75.35
2017-09-21T01:05:19.614Z,74.21
2017-09-21T01:06:29.649Z,74.78
2017-09-21T01:07:39.986Z,74.78
2017-09-21T01:08:50.334Z,74.78
2017-09-21T01:10:00.726Z,74.98
2017-09-21T01:11:11.067Z,75.07
2017-09-21T01:12:21.407Z,74.69
2017-09-21T01:13:31.431Z,75.07
2017-09-21T01:14:41.764Z,75.07
2017-09-21T01:15:52.094Z,75.16
2017-09-21T01:17:02.427Z,75.07
2017-09-21T01:18:12.770Z,74.88
2017-09-21T01:19:22.795Z,74.4
2017-09-21T01:20:32.812Z,74.4
2017-09-21T01:21:42.966Z,75.26
2017-09-21T01:22:54.285Z,74.78
2017-09-21T01:24:04.296Z,74.88
2017-09-21T01:25:14.625Z,74.4
2017-09-21T01:26:24.975Z,74.49
2017-09-21T01:27:35.307Z,75.35
2017-09-21T01:28:45.643Z,74.4
2017-09-21T01:29:58.692Z,74.21
2017-09-21T01:31:09.033Z,74.3
2017-09-21T01:32:19.060Z,74.4
2017-09-21T01:33:29.089Z,74.4
2017-09-21T01:34:39.114Z,74.4
2017-09-21T01:35:49.449Z,74.4
2017-09-21T01:36:59.787Z,74.21
2017-09-21T01:38:10.139Z,74.21
2017-09-21T01:39:20.484Z,74.4
2017-09-21T01:40:30.513Z,74.3
2017-09-21T01:41:40.215Z,74.21
2017-09-21T01:42:50.226Z,74.3
2017-09-21T01:44:00.579Z,75.26
2017-09-21T01:45:10.613Z,75.16
2017-09-21T01:46:20.946Z,74.88
2017-09-21T01:47:31.279Z,74.49
2017-09-21T01:48:40.981Z,74.98
2017-09-21T01:49:51.005Z,74.98
2017-09-21T01:51:01.353Z,74.69
2017-09-21T01:52:11.694Z,74.69
2017-09-21T01:53:22.028Z,75.07
2017-09-21T01:54:32.374Z,74.78
2017-09-21T01:55:42.717Z,74.69
2017-09-21T01:56:53.091Z,74.78
2017-09-21T01:58:03.146Z,74.69
2017-09-21T01:59:13.505Z,74.69
2017-09-21T02:00:23.837Z,74.69
2017-09-21T02:01:34.181Z,75.07
2017-09-21T02:02:44.510Z,75.07
2017-09-21T02:03:54.837Z,74.98
2017-09-21T02:05:05.179Z,74.88
2017-09-21T02:06:15.191Z,74.88
2017-09-21T02:07:25.210Z,74.88
2017-09-21T02:08:35.225Z,74.78
2017-09-21T02:09:45.244Z,74.88
2017-09-21T02:10:54.939Z,74.78
2017-09-21T02:12:05.300Z,75.16
2017-09-21T02:13:15.641Z,74.88
2017-09-21T02:14:25.985Z,74.78
2017-09-21T02:15:36.325Z,74.78
2017-09-21T02:16:46.754Z,75.26
2017-09-21T02:17:57.094Z,74.78
2017-09-21T02:19:07.831Z,74.98
2017-09-21T02:20:19.726Z,74.98
2017-09-21T02:21:29.698Z,74.78
2017-09-21T02:22:40.076Z,74.98
2017-09-21T02:23:50.417Z,74.88
2017-09-21T02:25:00.756Z,75.07
2017-09-21T02:26:11.087Z,74.4
2017-09-21T02:27:21.424Z,74.88
2017-09-21T02:28:31.756Z,74.21
2017-09-21T02:29:42.092Z,74.21
2017-09-21T02:30:52.414Z,74.4
2017-09-21T02:32:02.819Z,74.4
2017-09-21T02:33:13.162Z,74.3
2017-09-21T02:34:23.484Z,74.3
2017-09-21T02:35:33.841Z,74.21
2017-09-21T02:36:43.853Z,74.4
2017-09-21T02:37:53.942Z,74.4
2017-09-21T02:39:04.277Z,74.3
2017-09-21T02:40:14.626Z,74.21
2017-09-21T02:41:24.820Z,74.21
2017-09-21T02:42:35.281Z,74.11
2017-09-21T02:43:45.617Z,74.11
2017-09-21T02:44:55.649Z,73.92
2017-09-21T02:46:06.001Z,74.11
2017-09-21T02:47:16.039Z,74.3
2017-09-21T02:48:26.384Z,73.92
2017-09-21T02:49:36.771Z,73.92
2017-09-21T02:50:47.128Z,74.4
2017-09-21T02:51:57.482Z,74.21
2017-09-21T02:53:07.838Z,74.21
2017-09-21T02:54:18.184Z,74.11
2017-09-21T02:55:28.524Z,74.3
2017-09-21T02:56:38.864Z,74.3
2017-09-21T02:57:49.214Z,74.3
2017-09-21T02:58:59.240Z,74.21
2017-09-21T03:00:09.259Z,74.4
2017-09-21T03:01:19.610Z,74.21
2017-09-21T03:33:26.213Z,71.2
2017-09-21T03:34:36.548Z,71.58
2017-09-21T03:35:46.893Z,72.44
2017-09-21T03:36:57.204Z,73.21
2017-09-21T03:38:07.225Z,74.06
2017-09-21T03:39:17.600Z,73.87
2017-09-21T03:40:27.924Z,74.54
2017-09-21T03:41:38.261Z,74.82
2017-09-21T03:42:48.272Z,75.3
2017-09-21T03:43:58.604Z,75.34
2017-09-21T03:45:08.938Z,75.24
2017-09-21T03:46:18.951Z,75.05
2017-09-21T03:47:29.293Z,75.34
2017-09-21T03:48:39.302Z,75.28
2017-09-21T03:49:49.633Z,75.28
2017-09-21T03:50:59.652Z,75.37
2017-09-21T03:52:10.005Z,75.09
2017-09-21T03:53:20.032Z,75.28
2017-09-21T03:54:30.365Z,74.74
2017-09-21T03:55:40.705Z,75.03
2017-09-21T03:56:51.039Z,75.03
2017-09-21T03:58:01.380Z,75.03
2017-09-21T03:59:11.711Z,75.03
2017-09-21T04:00:22.043Z,74.84
2017-09-21T04:01:32.378Z,74.84
2017-09-21T04:02:42.405Z,75.07
2017-09-21T04:03:52.734Z,75.07
2017-09-21T04:05:03.079Z,74.98
2017-09-21T04:06:13.393Z,74.98
2017-09-21T04:07:23.724Z,74.4
2017-09-21T04:08:34.107Z,74.49
2017-09-21T04:09:44.442Z,74.98
2017-09-21T04:10:54.137Z,74.98
2017-09-21T04:12:04.485Z,75.16
2017-09-21T04:13:14.534Z,74.88
2017-09-21T04:14:24.861Z,74.4
2017-09-21T04:15:35.210Z,74.98
2017-09-21T04:16:46.616Z,74.88
2017-09-21T04:17:56.960Z,74.59
2017-09-21T04:19:06.962Z,74.98
2017-09-21T04:20:16.978Z,74.49
2017-09-21T04:21:27.023Z,74.88
2017-09-21T04:22:37.361Z,74.98
2017-09-21T04:23:47.375Z,74.59
2017-09-21T04:24:57.731Z,74.98
2017-09-21T04:26:08.072Z,74.98
2017-09-21T04:27:18.411Z,74.88
2017-09-21T04:28:28.766Z,74.88
2017-09-21T04:29:38.471Z,74.98
2017-09-21T04:30:48.807Z,74.59
2017-09-21T04:31:59.202Z,74.98
2017-09-21T04:33:09.528Z,74.88
2017-09-21T04:34:19.864Z,74.4
2017-09-21T04:35:30.200Z,75.07
2017-09-21T04:36:40.577Z,75.26
2017-09-21T04:37:50.956Z,74.88
2017-09-21T04:39:01.318Z,74.88
2017-09-21T04:40:11.668Z,74.4
2017-09-21T04:41:22.074Z,74.4
2017-09-21T04:42:32.407Z,74.88
2017-09-21T04:43:42.779Z,74.88
2017-09-21T04:44:53.117Z,75.07
2017-09-21T04:46:03.462Z,74.69
2017-09-21T04:47:13.795Z,74.88
2017-09-21T04:48:24.137Z,74.88
2017-09-21T04:49:34.485Z,74.88
2017-09-21T04:50:44.864Z,74.88
2017-09-21T04:51:55.215Z,74.88
2017-09-21T04:53:05.586Z,74.82
2017-09-21T04:54:15.931Z,74.69
2017-09-21T04:55:25.945Z,74.69
2017-09-21T04:56:35.959Z,74.88
2017-09-21T04:57:46.300Z,74.78
2017-09-21T04:58:56.647Z,74.69
2017-09-21T05:00:06.665Z,74.78
2017-09-21T05:01:17.080Z,74.78
2017-09-21T05:02:27.422Z,74.4
2017-09-21T05:03:39.009Z,74.34
2017-09-21T05:04:49.064Z,74.53
2017-09-21T05:05:59.393Z,74.44
2017-09-21T05:07:09.729Z,73.96
2017-09-21T05:08:19.751Z,74.24
2017-09-21T05:09:29.774Z,74.05
2017-09-21T05:10:39.795Z,74.15
2017-09-21T05:11:50.130Z,74.05
2017-09-21T05:13:00.214Z,74.24
2017-09-21T05:14:10.244Z,74.05
2017-09-21T05:15:20.586Z,74.05
2017-09-21T05:16:30.922Z,74.05
2017-09-21T05:17:41.269Z,74.44
2017-09-21T05:18:51.624Z,74.24
2017-09-21T05:20:01.980Z,74.24
2017-09-21T05:21:11.986Z,74.05
2017-09-21T05:22:22.008Z,74.05
2017-09-21T05:23:32.042Z,74.05
2017-09-21T05:24:42.057Z,73.96
2017-09-21T05:25:52.393Z,74.15
2017-09-21T05:27:02.733Z,74.34
2017-09-21T05:28:13.050Z,74.24
2017-09-21T05:29:23.082Z,74.34
2017-09-21T05:30:33.112Z,74.24
2017-09-21T05:31:43.460Z,74.15
2017-09-21T05:32:53.478Z,74.24
2017-09-21T05:34:03.513Z,74.24
2017-09-21T05:35:13.860Z,74.34
2017-09-21T05:36:24.247Z,74.34
2017-09-21T05:37:34.577Z,74.19
2017-09-21T05:38:44.916Z,74.05
2017-09-21T05:39:54.607Z,74.09
2017-09-21T05:41:04.640Z,73.99
2017-09-21T05:42:15.018Z,74.19
2017-09-21T05:43:25.361Z,74.09
2017-09-21T05:44:35.695Z,73.99
2017-09-21T05:45:46.023Z,73.9
2017-09-21T05:46:56.033Z,73.8
2017-09-21T05:48:06.420Z,73.71
2017-09-21T05:49:16.767Z,73.9
2017-09-21T05:50:27.107Z,73.33
2017-09-21T05:51:37.451Z,73.17
2017-09-21T05:52:47.802Z,73.08
2017-09-21T05:53:58.191Z,73.27
2017-09-21T05:55:08.544Z,73.65
2017-09-21T05:56:18.567Z,73.65
2017-09-21T05:57:28.946Z,73.27
2017-09-21T05:58:38.968Z,73.27
2017-09-21T05:59:49.033Z,73.27
2017-09-21T06:00:59.369Z,73.36
2017-09-21T06:02:09.694Z,73.17
2017-09-21T06:03:19.720Z,73.27
2017-09-21T06:04:30.062Z,73.27
2017-09-21T06:05:40.401Z,73.36
2017-09-21T06:06:50.425Z,73.94
2017-09-21T06:08:00.756Z,73.65
2017-09-21T06:09:10.783Z,73.65
2017-09-21T06:10:20.799Z,73.55
2017-09-21T06:11:30.871Z,73.94
2017-09-21T06:12:41.203Z,74.32
2017-09-21T06:13:51.544Z,74.09
2017-09-21T06:15:01.887Z,74.38
2017-09-21T06:16:12.214Z,74.38
2017-09-21T06:17:22.606Z,74.28
2017-09-21T06:18:32.637Z,74.48
2017-09-21T06:19:42.979Z,74.38
2017-09-21T06:20:53.326Z,74.38
2017-09-21T06:22:03.378Z,74.38
2017-09-21T06:23:13.388Z,73.99
2017-09-21T06:24:23.750Z,74.19
2017-09-21T06:25:33.757Z,73.99
2017-09-21T06:26:45.805Z,74.09
2017-09-21T06:27:56.150Z,74.19
2017-09-21T06:29:06.507Z,73.61
2017-09-21T06:30:16.858Z,73.8
2017-09-21T06:31:27.227Z,74.32
2017-09-21T06:32:37.580Z,73.71
2017-09-21T06:33:47.925Z,73.94
2017-09-21T06:34:58.343Z,73.84
2017-09-21T06:36:08.693Z,73.84
2017-09-21T06:37:19.015Z,73.84
2017-09-21T06:38:29.043Z,74.38
2017-09-21T06:39:39.067Z,74.09
2017-09-21T06:40:49.408Z,73.99
2017-09-21T06:42:01.226Z,74.19
2017-09-21T06:43:11.623Z,74.19
2017-09-21T06:44:21.965Z,73.9
2017-09-21T06:45:31.982Z,74.19
2017-09-21T06:46:42.311Z,74.19
2017-09-21T06:47:52.347Z,73.9
2017-09-21T06:49:02.691Z,74.19
2017-09-21T06:50:12.385Z,74.09
2017-09-21T06:51:22.721Z,74.09
2017-09-21T06:52:33.061Z,73.61
2017-09-21T06:53:43.401Z,74.09
2017-09-21T06:54:53.776Z,73.71
2017-09-21T06:56:03.798Z,73.9
2017-09-21T06:57:14.134Z,73.75
2017-09-21T06:58:26.421Z,73.75
2017-09-21T06:59:36.759Z,73.27
2017-09-21T07:00:46.838Z,73.46
2017-09-21T07:01:56.862Z,73.46
2017-09-21T07:03:07.221Z,73.46
2017-09-21T07:04:17.243Z,73.08
2017-09-21T07:05:27.571Z,73.02
2017-09-21T07:06:39.001Z,73.3
2017-09-21T07:07:49.353Z,73.4
2017-09-21T07:08:59.685Z,73.21
2017-09-21T07:10:10.030Z,72.86
2017-09-21T07:11:19.756Z,72.77
2017-09-21T07:12:29.793Z,72.77
2017-09-21T07:13:39.825Z,72.77
2017-09-21T07:14:50.171Z,72.96
2017-09-21T07:16:00.511Z,72.67
2017-09-21T07:17:10.860Z,72.77
2017-09-21T07:18:21.209Z,72.71
2017-09-21T07:19:31.554Z,72.8
2017-09-21T07:20:41.896Z,72.99
2017-09-21T07:21:52.226Z,72.42
2017-09-21T07:23:02.236Z,72.32
2017-09-21T07:24:11.940Z,72.32
2017-09-21T07:25:24.822Z,72.32
2017-09-21T07:26:35.164Z,72.55
2017-09-21T07:27:45.499Z,72.45
2017-09-21T07:28:55.538Z,73.03
2017-09-21T07:30:05.569Z,72.94
2017-09-21T07:31:15.913Z,72.84
2017-09-21T07:32:26.264Z,72.84
2017-09-21T07:33:36.285Z,72.55
2017-09-21T07:34:46.621Z,72.84
2017-09-21T07:35:56.963Z,72.94
2017-09-21T07:37:06.680Z,72.64
2017-09-21T07:38:17.012Z,72.74
2017-09-21T07:39:26.097Z,72.94
2017-09-21T07:40:35.801Z,72.74
2017-09-21T07:41:45.870Z,72.94
2017-09-21T07:42:56.219Z,72.84
2017-09-21T07:44:06.240Z,72.84
2017-09-21T07:45:16.587Z,73.41
2017-09-21T07:46:26.921Z,73.41
2017-09-21T07:47:37.252Z,73.32
2017-09-21T07:48:47.599Z,72.64
2017-09-21T07:49:57.925Z,72.88
2017-09-21T07:51:08.271Z,72.59
2017-09-21T07:52:18.602Z,72.59
2017-09-21T07:53:29.008Z,72.78
2017-09-21T07:54:39.345Z,72.59
2017-09-21T07:55:49.677Z,72.59
2017-09-21T07:57:00.029Z,72.78
2017-09-21T07:58:10.392Z,72.97
2017-09-21T07:59:20.149Z,72.78
2017-09-21T08:00:30.499Z,72.78
2017-09-21T08:01:40.841Z,72.97
2017-09-21T08:02:50.861Z,72.81
2017-09-21T08:04:01.200Z,72.81
2017-09-21T08:05:11.537Z,72.81
2017-09-21T08:06:21.875Z,72.63
2017-09-21T08:07:32.218Z,72.43
2017-09-21T08:08:42.553Z,72.63
2017-09-21T08:09:52.898Z,72.18
2017-09-21T08:11:03.232Z,71.98
2017-09-21T08:12:13.257Z,72.47
2017-09-21T08:13:23.299Z,71.93
2017-09-21T08:14:33.334Z,71.93
2017-09-21T08:15:43.389Z,71.25
2017-09-21T08:16:53.468Z,71.83
2017-09-21T08:18:03.806Z,71.83
2017-09-21T08:19:13.839Z,71.93
2017-09-21T08:20:24.186Z,71.58
2017-09-21T08:21:34.502Z,71.77
2017-09-21T08:22:44.509Z,71.67
2017-09-21T08:23:54.857Z,71.87
2017-09-21T08:25:04.912Z,71.58
2017-09-21T08:26:14.643Z,71.42
2017-09-21T08:27:24.657Z,71.81
2017-09-21T08:28:35.062Z,72
2017-09-21T08:29:45.390Z,71.61
2017-09-21T08:30:56.512Z,71.71
2017-09-21T08:32:06.231Z,72
2017-09-21T08:33:16.596Z,71.91
2017-09-21T08:34:26.975Z,71.65
2017-09-21T08:35:37.339Z,71.94
2017-09-21T08:36:47.685Z,71.84
2017-09-21T08:37:58.031Z,71.75
2017-09-21T08:39:08.432Z,71.55
2017-09-21T08:40:18.825Z,71.94
2017-09-21T08:41:31.161Z,71.94
2017-09-21T08:42:41.197Z,72.13
2017-09-21T08:43:51.530Z,72.61
2017-09-21T08:45:01.883Z,72.71
2017-09-21T08:46:11.969Z,72.13
2017-09-21T08:47:21.986Z,72.13
2017-09-21T08:48:32.325Z,72.23
2017-09-21T08:49:42.681Z,72.03
2017-09-21T08:50:52.716Z,71.65
2017-09-21T08:52:02.740Z,71.75
2017-09-21T08:53:13.080Z,71.65
2017-09-21T08:54:23.456Z,71.84
2017-09-21T08:55:36.637Z,71.65
2017-09-21T08:56:46.659Z,71.49
2017-09-21T08:57:56.726Z,71.49
2017-09-21T08:59:07.073Z,70.82
2017-09-21T09:00:17.422Z,70.95
2017-09-21T09:01:27.771Z,70.21
2017-09-21T09:02:41.014Z,70.5
2017-09-21T09:03:51.381Z,70.6
2017-09-21T09:05:01.759Z,70.06
2017-09-21T09:06:12.844Z,70.25
2017-09-21T09:07:23.182Z,70.35
2017-09-21T09:08:34.478Z,70.35
2017-09-21T09:09:44.841Z,70.64
2017-09-21T09:10:54.864Z,70.64
2017-09-21T09:12:05.209Z,71.02
2017-09-21T09:13:15.579Z,70.54
2017-09-21T09:14:25.913Z,70.64
2017-09-21T09:15:37.693Z,71.22
2017-09-21T09:16:48.037Z,71.22
2017-09-21T09:17:58.389Z,70.73
2017-09-21T09:19:08.739Z,71.6
2017-09-21T09:20:19.096Z,71.5
2017-09-21T09:21:29.478Z,71.89
2017-09-21T09:22:39.813Z,71.89
2017-09-21T09:23:50.184Z,72.33
2017-09-21T09:25:00.253Z,72.91
2017-09-21T09:26:10.612Z,72.43
2017-09-21T09:27:20.967Z,72.72
2017-09-21T09:28:31.007Z,72.33
2017-09-21T09:29:41.385Z,72.05
2017-09-21T09:30:54.857Z,71.7
2017-09-21T09:32:04.581Z,71.6
2017-09-21T09:33:19.236Z,70.92
2017-09-21T09:34:30.969Z,71.25
2017-09-21T09:35:41.322Z,71.31
2017-09-21T09:36:51.372Z,71.5
2017-09-21T09:38:01.742Z,71.41
2017-09-21T09:39:11.479Z,70.92
2017-09-21T09:40:21.850Z,70.76
2017-09-21T09:41:32.204Z,71.25
2017-09-21T09:42:42.254Z,70.96
2017-09-21T09:43:52.618Z,70.86
2017-09-21T09:45:02.723Z,70.96
2017-09-21T09:46:14.997Z,70.86
2017-09-21T09:47:25.037Z,70.96
2017-09-21T09:48:34.819Z,71.25
2017-09-21T09:49:44.858Z,71.06
2017-09-21T09:50:55.298Z,70.8
2017-09-21T09:52:07.543Z,71.15
2017-09-21T09:53:22.216Z,71.64
2017-09-21T09:54:32.249Z,71.64
2017-09-21T09:55:42.734Z,71.54
2017-09-21T09:56:53.572Z,72.12
2017-09-21T09:58:06.725Z,71.92
2017-09-21T09:59:16.454Z,71.83
2017-09-21T10:00:26.505Z,71.83
2017-09-21T10:01:36.875Z,72.02
2017-09-21T10:02:47.155Z,72.02
2017-09-21T10:03:57.187Z,71.92
2017-09-21T10:05:07.220Z,72.21
2017-09-21T10:06:17.601Z,72.31
2017-09-21T10:07:27.321Z,71.64
2017-09-21T10:08:37.049Z,72.12
2017-09-21T10:09:47.406Z,71.64
2017-09-21T10:10:57.750Z,71.06
2017-09-21T10:12:08.117Z,70.7
2017-09-21T10:13:18.458Z,70.26
2017-09-21T10:14:28.803Z,70.06
2017-09-21T10:15:39.147Z,70
2017-09-21T10:16:49.508Z,69.42
2017-09-21T10:17:59.870Z,70.14
2017-09-21T10:19:10.250Z,69.65
2017-09-21T10:20:20.641Z,69.74
2017-09-21T10:21:30.978Z,70.32
2017-09-21T10:22:41.016Z,70.97
2017-09-21T10:23:51.373Z,70.84
2017-09-21T10:25:03.546Z,71.7
2017-09-21T10:26:15.243Z,71.51
2017-09-21T10:27:25.613Z,72.06
2017-09-21T10:28:35.960Z,71.7
2017-09-21T10:29:46.326Z,71.96
2017-09-21T10:30:56.681Z,71.96
2017-09-21T10:32:06.746Z,71.96
2017-09-21T10:33:17.128Z,71.86
2017-09-21T10:34:27.268Z,72.31
2017-09-21T10:35:37.499Z,71.96
2017-09-21T10:36:47.854Z,71.58
2017-09-21T10:37:58.259Z,71.38
2017-09-21T10:39:08.296Z,71.58
2017-09-21T10:40:18.660Z,71.58
2017-09-21T10:41:28.690Z,71.32
2017-09-21T10:42:39.043Z,71.12
2017-09-21T10:43:49.053Z,71.32
2017-09-21T10:44:59.420Z,71.03
2017-09-21T10:46:09.753Z,70.64
2017-09-21T10:47:19.799Z,70.29
2017-09-21T10:48:30.134Z,70.78
2017-09-21T10:49:39.212Z,70.39
2017-09-21T10:50:49.563Z,70.2
2017-09-21T10:51:59.615Z,70.04
2017-09-21T10:53:09.951Z,70.52
2017-09-21T10:54:19.990Z,70.23
2017-09-21T10:55:30.018Z,70.23
2017-09-21T10:56:40.043Z,69.46
2017-09-21T10:57:50.408Z,69.65
2017-09-21T10:59:00.749Z,69.98
2017-09-21T11:00:11.121Z,69.88
2017-09-21T11:01:21.153Z,70.07
2017-09-21T11:02:31.509Z,70.07
2017-09-21T11:03:41.849Z,69.59
2017-09-21T11:04:52.193Z,70.36
2017-09-21T11:06:02.542Z,70.56
2017-09-21T11:07:12.633Z,70.81
2017-09-21T11:08:22.680Z,71.06
2017-09-21T11:09:33.059Z,71.45
2017-09-21T11:10:43.418Z,71.26
2017-09-21T11:11:53.768Z,71.06
2017-09-21T11:13:04.101Z,71.64
2017-09-21T11:14:13.807Z,72.09
2017-09-21T11:15:23.859Z,72.19
2017-09-21T11:16:34.207Z,72.25
2017-09-21T11:17:44.565Z,72.15
2017-09-21T11:18:54.937Z,71.86
2017-09-21T11:20:04.967Z,71.96
2017-09-21T11:21:15.323Z,71.48
2017-09-21T11:22:25.666Z,71.67
2017-09-21T11:23:36.014Z,71.58
2017-09-21T11:24:46.428Z,71.48
2017-09-21T11:25:56.444Z,72.15
2017-09-21T11:27:06.804Z,71.83
2017-09-21T11:28:16.846Z,72.02
2017-09-21T11:29:26.883Z,72.21
2017-09-21T11:30:37.338Z,72.66
2017-09-21T11:31:47.791Z,72.85
2017-09-21T11:32:58.150Z,72.75
2017-09-21T11:34:08.502Z,72.66
2017-09-21T11:35:18.537Z,73.14
2017-09-21T11:36:28.877Z,72.81
2017-09-21T11:37:38.913Z,72.43
2017-09-21T11:38:49.258Z,72.47
2017-09-21T11:39:59.597Z,72.08
2017-09-21T11:41:09.951Z,72.37
2017-09-21T11:42:20.297Z,72.85
2017-09-21T11:43:30.655Z,72.53
2017-09-21T11:44:40.692Z,72.81
2017-09-21T11:45:50.724Z,72.72
2017-09-21T11:47:01.078Z,72.33
2017-09-21T11:48:11.481Z,72.81
2017-09-21T11:49:21.526Z,72.75
2017-09-21T11:50:31.222Z,72.72
2017-09-21T11:51:41.244Z,72.75
2017-09-21T11:52:51.620Z,72.63
2017-09-21T11:54:01.692Z,72.63
2017-09-21T11:55:11.731Z,72.91
2017-09-21T11:56:22.106Z,72.53
2017-09-21T11:57:32.148Z,72.43
2017-09-21T11:58:42.176Z,72.53
2017-09-21T11:59:52.569Z,73.01
2017-09-21T12:01:02.575Z,72.33
2017-09-21T12:02:12.925Z,72.33
2017-09-21T12:03:23.298Z,72.85
2017-09-21T12:04:33.645Z,72.24
2017-09-21T12:05:43.745Z,72.33
2017-09-21T12:06:53.784Z,72.72
2017-09-21T12:08:03.828Z,73.2
2017-09-21T12:09:14.178Z,73.01
2017-09-21T12:10:24.227Z,72.91
2017-09-21T12:11:34.577Z,72.33
2017-09-21T12:12:44.935Z,72.53
2017-09-21T12:13:54.972Z,72.05
2017-09-21T12:15:05.334Z,71.95
2017-09-21T12:16:15.680Z,71.76
2017-09-21T12:17:26.042Z,71.5
2017-09-21T12:18:36.101Z,71.02
2017-09-21T12:19:46.459Z,71.34
2017-09-21T12:20:56.499Z,70.38
2017-09-21T12:22:06.859Z,70.7
2017-09-21T12:23:17.278Z,70.32
2017-09-21T12:24:27.000Z,70.16
2017-09-21T12:25:37.048Z,69.97
2017-09-21T12:26:47.406Z,69.58
2017-09-21T12:27:57.766Z,70
2017-09-21T12:29:09.199Z,70.29
2017-09-21T12:30:19.247Z,70.39
2017-09-21T12:31:29.628Z,70.78
2017-09-21T12:32:40.928Z,70.45
2017-09-21T12:33:50.972Z,71.32
2017-09-21T12:35:01.417Z,71.8
2017-09-21T12:36:11.773Z,71.61
2017-09-21T12:37:22.152Z,71.9
2017-09-21T12:38:32.188Z,72.15
2017-09-21T12:39:43.190Z,71.77
2017-09-21T12:40:53.551Z,72.15
2017-09-21T12:42:03.630Z,72.69
2017-09-21T12:43:13.996Z,72.73
2017-09-21T12:44:24.403Z,72.41
2017-09-21T12:45:34.747Z,72.41
2017-09-21T12:46:45.167Z,72.79
2017-09-21T12:47:55.536Z,72.85
2017-09-21T12:49:05.906Z,72.56
2017-09-21T12:50:15.942Z,73.24
2017-09-21T12:51:26.306Z,72.85
2017-09-21T12:52:36.721Z,73.14
2017-09-21T12:53:46.776Z,73.3
2017-09-21T12:54:56.805Z,72.91
2017-09-21T12:56:07.170Z,73.01
2017-09-21T12:57:17.534Z,73.1
2017-09-21T12:58:27.627Z,73.3
2017-09-21T12:59:37.653Z,73.39
2017-09-21T13:00:47.693Z,73.07
2017-09-21T13:01:57.731Z,73.55
2017-09-21T13:03:08.095Z,73.36
2017-09-21T13:04:18.479Z,72.53
2017-09-21T13:05:28.816Z,72.63
2017-09-21T13:06:39.174Z,72.43
2017-09-21T13:07:49.204Z,71.79
2017-09-21T13:08:59.571Z,71.79
2017-09-21T13:10:09.649Z,71.89
2017-09-21T13:11:20.003Z,71.5
2017-09-21T13:12:30.364Z,71.44
2017-09-21T13:13:40.710Z,71.44
2017-09-21T13:14:51.082Z,70.9
2017-09-21T13:16:01.186Z,70.9
2017-09-21T13:17:11.233Z,71
2017-09-21T13:18:21.599Z,71.28
2017-09-21T13:19:31.949Z,70.9
2017-09-21T13:20:42.304Z,71.28
2017-09-21T13:21:52.668Z,70.8
2017-09-21T13:23:03.041Z,70.7
2017-09-21T13:24:13.096Z,70.7
2017-09-21T13:25:23.130Z,71
2017-09-21T13:26:33.488Z,71.09
2017-09-21T13:27:43.881Z,70.74
2017-09-21T13:28:53.931Z,71.03
2017-09-21T13:30:04.287Z,70.74
2017-09-21T13:31:14.334Z,70.26
2017-09-21T13:32:24.376Z,70.54
2017-09-21T13:33:34.723Z,70.87
2017-09-21T13:34:45.097Z,70.78
2017-09-21T13:35:55.437Z,70.78
2017-09-21T13:37:05.963Z,70.58
2017-09-21T13:38:16.315Z,70.68
2017-09-21T13:39:26.718Z,70.87
2017-09-21T13:40:36.744Z,71.45
2017-09-21T13:41:48.475Z,71.16
2017-09-21T13:42:58.842Z,71.06
2017-09-21T13:44:09.187Z,70.97
2017-09-21T13:45:19.575Z,71.36
2017-09-21T13:46:29.608Z,71.36
2017-09-21T13:47:39.977Z,70.97
2017-09-21T13:48:49.997Z,70.97
2017-09-21T13:50:01.030Z,71.36
2017-09-21T13:51:11.435Z,71.36
2017-09-21T13:52:21.773Z,71.26
2017-09-21T13:53:32.113Z,70.78
2017-09-21T13:54:42.447Z,70.87
2017-09-21T13:55:52.797Z,71.84
2017-09-21T13:57:03.159Z,71.9
2017-09-21T13:58:13.514Z,72.09
2017-09-21T13:59:23.860Z,72.28
2017-09-21T14:00:36.906Z,72.54
2017-09-21T14:01:47.246Z,72.73
2017-09-21T14:02:57.639Z,72.79
2017-09-21T14:04:07.982Z,73.08
2017-09-21T14:05:18.007Z,72.5
2017-09-21T14:06:28.028Z,71.54
2017-09-21T14:07:38.375Z,71.96
2017-09-21T14:08:48.728Z,71.96
2017-09-21T14:09:59.079Z,71.67
2017-09-21T14:11:09.129Z,71.77
2017-09-21T14:12:19.522Z,71.96
2017-09-21T14:13:29.857Z,71.96
2017-09-21T14:14:42.602Z,71.96
2017-09-21T14:15:52.958Z,71.86
2017-09-21T14:17:02.659Z,72.02
2017-09-21T14:18:13.005Z,71.92
2017-09-21T14:19:23.386Z,72.12
2017-09-21T14:20:33.400Z,72.95
2017-09-21T14:21:43.755Z,72.56
2017-09-21T14:22:54.785Z,72.95
2017-09-21T14:24:05.131Z,73.53
2017-09-21T14:25:15.476Z,73.33
2017-09-21T14:26:25.548Z,73.33
2017-09-21T14:27:35.586Z,73.3
2017-09-21T14:28:45.920Z,73.3
2017-09-21T14:29:56.280Z,73.3
2017-09-21T14:31:06.636Z,73.39
2017-09-21T14:32:17.048Z,73.3
2017-09-21T14:33:27.068Z,73.3
2017-09-21T14:34:37.100Z,73.01
2017-09-21T14:35:47.128Z,72.72
2017-09-21T14:36:57.460Z,72.72
2017-09-21T14:38:07.800Z,72.72
2017-09-21T14:39:17.829Z,72.66
2017-09-21T14:40:28.175Z,72.53
2017-09-21T14:41:38.505Z,72.43
2017-09-21T14:42:48.869Z,72.81
2017-09-21T14:43:59.209Z,72.72
2017-09-21T14:45:09.283Z,72.72
2017-09-21T14:46:20.408Z,72.85
2017-09-21T14:47:30.429Z,72.81
2017-09-21T14:48:40.777Z,72.72
2017-09-21T14:49:51.118Z,72.91
2017-09-21T14:51:03.810Z,73.01
2017-09-21T14:52:13.838Z,73.1
2017-09-21T14:53:24.183Z,73.16
2017-09-21T14:54:34.540Z,73.07
2017-09-21T14:55:45.084Z,73.55
2017-09-21T14:56:55.155Z,73.55
2017-09-21T14:58:05.497Z,73.46
2017-09-21T14:59:15.840Z,73.13
2017-09-21T15:00:26.196Z,73.13
2017-09-21T15:01:36.546Z,73.42
2017-09-21T15:02:46.878Z,73.22
2017-09-21T15:03:57.201Z,73.61
2017-09-21T15:05:07.544Z,73.77
2017-09-21T15:06:17.552Z,73.57
2017-09-21T15:07:27.893Z,73.09
2017-09-21T15:08:37.966Z,73.28
2017-09-21T15:09:48.320Z,73.38
2017-09-21T15:10:58.800Z,73.67
2017-09-21T15:12:09.134Z,73.57
2017-09-21T15:13:19.473Z,73.96
2017-09-21T15:14:29.860Z,73.67
2017-09-21T15:15:39.917Z,73.77
2017-09-21T15:16:50.278Z,73.86
2017-09-21T15:18:00.295Z,73.57
2017-09-21T15:19:11.229Z,73
2017-09-21T15:20:21.580Z,73.22
2017-09-21T15:21:31.302Z,73.22
2017-09-21T15:22:41.326Z,73.32
2017-09-21T15:23:51.682Z,73.03
2017-09-21T15:25:01.725Z,72.84
2017-09-21T15:26:11.809Z,72.55
2017-09-21T15:27:22.155Z,72.55
2017-09-21T15:28:32.506Z,72.84
2017-09-21T15:29:42.541Z,72.74
2017-09-21T15:30:52.576Z,72.84
2017-09-21T15:32:02.582Z,72.68
2017-09-21T15:33:12.606Z,72.88
2017-09-21T15:34:22.652Z,72.88
2017-09-21T15:35:33.014Z,72.49
2017-09-21T15:36:43.376Z,72.97
2017-09-21T15:37:53.116Z,72.59
2017-09-21T15:39:03.499Z,72.39
2017-09-21T15:40:13.220Z,73.16
2017-09-21T15:41:23.589Z,72.88